Terminal Aerodrome Forecast
Issued by NWS

Home | Current Version | Previous Version | Text Only | Print | Product List | Glossary Off
Versions: 1 2 3 4 5 6 7 8 9 10 11 12 13 14 15 16 17 18 19

000
FTUS43 KBIS 260500
TAFDIK
TAF
KDIK 260540Z 2606/2706 33011KT P6SM OVC015
     FM261000 33008KT P6SM SCT015 BKN030
     FM261300 32008KT P6SM SCT030 BKN150=

USA.gov is the U.S. government's official web portal to all federal, state and local government web resources and services.